Charlottetown, Canada
Current Conditions -  °F | °C
As of 9:00 AM on Sunday 21 Dec 2014 (Local Time) from CYYG Reporting Station
Overcast Overcast  
Wind Chill: 28°   Ceiling: 1900
Heat Index: 28°   Visibility: 15mi
Dew Point: 23°   Wind: 3mph
Humidity: 80%   Direction: 30°NNE
Pressure: 30.39"   Gusts: NA
Location:  46.24°N, 63.13°W
Report Text: CYYG 211300Z 03003KT 15SM OVC019 M02/M05 A3039 RMK SC8 SLP294
Loading
Personal Weather Stations






























Interactive Weather Map New forecast layout! Learn more

10-Day Weather Forecast

Advertisements
Track Severe Weather on mobile